Melvindale, MI (48122)

6:07 PM EDT on September 04, 2015 (GMT -0400)
Southfield And Outer Drive | | Change Station
CLOSE
Current Station
Personal Weather Station
Location: Allen Park, MI
Elevation: 630 ft
Nearby Weather Stations

Elev 630 ft 42.27 °N, 83.21 °W | Updated 26 seconds ago

Partly Cloudy
Partly Cloudy
79.2 °F
Feels Like 82 °F
N
5.8
Wind Variable Wind from SSE
Gusts 7.4 mph

Today
High -- | Low -- °F
--% Chance of Precip.
Yesterday
High -- | Low -- °F
Precip. -- in
7:00 AM 8:01 PM
Waning Gibbous, 55% visible
Pressure 30.02 in
Visibility 10.0 miles
Clouds Few 3500 ft
Mostly Cloudy 20000 ft
Heat Index 82 °F
Dew Point 71 °F
Humidity 76%
Rainfall 0.00 in
Snow Depth Not available.
UV 1.0 out of 12
Pollen 7.20 out of 12
Air Quality Not available.
Flu Activity Not available.
METAR KDTW 042153Z 14005KT 10SM FEW035 BKN200 26/22 A3003 RMK AO2 SLP164 T02610217
Pressure 30.02 in
Visibility 10.0 miles
Clouds Few 3500 ft
Mostly Cloudy 20000 ft
Heat Index 82 °F
Dew Point 71 °F
Humidity 76%
Rainfall 0.00 in
Snow Depth Not available.
UV 1.0 out of 12
Pollen 7.20 out of 12
Air Quality Not available.
Flu Activity Not available.
METAR KDTW 042153Z 14005KT 10SM FEW035 BKN200 26/22 A3003 RMK AO2 SLP164 T02610217

10-Day Weather Forecast

×

Almanac

Astronomy

Sep. 04, 2015 Rise Set
Actual Time
Civil Twilight
Nautical Twilight
Astronomical Twilight
Moon
Length of Visible Light
Length of Day
Tomorrow will be .
, % of the Moon is Illuminated

Today's Extremes

State Highs State Lows

Community

WunderPhotos

Upload Photos

1,852,305 photos uploaded!

WunderBlogs® & News

Nearby

Air Quality

  Air Quality AQ Index Pollutant
Not available.

Snow Depth

Station Depth Elevation

Earthquake Activity

City Distance Mag. Time & Date
Minimum magnitude displayed is 2.5.

Coastal Water Temperatures

Place Temperature

Stations

Nearby Weather Stations

Station Location Temp. Windchill Dew Point Humidity Wind Precip. Elev Updated Type